This is the latest recevied weather packets stored in our database for station/object TG8ARF-18. If no packets are shown the sender has not sent any weather packets the latest 10 day(s).
| Time | Temp. | Humidity | Pressure | Rain* | Wind** | Luminosity | Snow |
|---|---|---|---|---|---|---|---|
| 1777750551 | 25.56° C | 57% | 1014 hPa | 0 mm | - | - | - |
| 1777749950 | 25.56° C | 54% | 1014 hPa | 0 mm | - | - | - |
| 1777749349 | 25.56° C | 54% | 1014 hPa | 0 mm | - | - | - |
| 1777748749 | 25.56° C | 54% | 1014 hPa | 0 mm | - | - | - |
| 1777748148 | 25.56° C | 53% | 1014 hPa | 0 mm | - | - | - |
| 1777747547 | 25.56° C | 53% | 1014 hPa | 0 mm | - | - | - |
| 1777746947 | 25° C | 53% | 1014 hPa | 0 mm | - | - | - |
| 1777746346 | 24.44° C | 55% | 1015 hPa | 0 mm | - | - | - |
| 1777745745 | 24.44° C | 55% | 1015 hPa | 0 mm | - | - | - |
| 1777745145 | 23.33° C | 55% | 1015 hPa | 0 mm | - | - | - |
| 1777744544 | 24.44° C | 53% | 1015 hPa | 0 mm | - | - | - |
| 1777743944 | 23.33° C | 53% | 1015 hPa | 0 mm | - | - | - |
| 1777743343 | 23.89° C | 56% | 1015 hPa | 0 mm | - | - | - |
| 1777742742 | 22.78° C | 56% | 1015 hPa | 0 mm | - | - | - |
| 1777742142 | 23.33° C | 57% | 1015 hPa | 0 mm | - | - | - |
| 1777741541 | 22.22° C | 57% | 1015 hPa | 0 mm | - | - | - |
| 1777740940 | 21.11° C | 57% | 1015 hPa | 0 mm | - | - | - |
| 1777740339 | 20° C | 57% | 1016 hPa | 0 mm | - | - | - |
| 1777739738 | 20° C | 57% | 1016 hPa | 0 mm | - | - | - |
| 1777739137 | 22.78° C | 78% | 1016 hPa | 0 mm | - | - | - |
| 1777738537 | 21.67° C | 78% | 1016 hPa | 0 mm | - | - | - |
| 1777737936 | 20.56° C | 78% | 1016 hPa | 0 mm | - | - | - |
| 1777737336 | 19.44° C | 78% | 1016 hPa | 0 mm | - | - | - |
| 1777736735 | 19.44° C | 78% | 1016 hPa | 0 mm | - | - | - |
| 1777736135 | 18.33° C | 78% | 1016 hPa | 0 mm | - | - | - |
* Rain latest hour (hover to see other rain measurements)
** Current wind speed in m/s (hover to see current wind gust speed)